createdAt,value
2018-01-26T00:00:45.124Z,10.17
2018-01-26T00:03:12.067Z,9.80
2018-01-26T00:05:39.025Z,9.13
2018-01-26T00:08:05.898Z,7.77
2018-01-26T00:10:33.577Z,7.97
2018-01-26T00:13:00.462Z,6.77
2018-01-26T00:15:27.524Z,6.53
2018-01-26T00:17:54.384Z,6.03
2018-01-26T00:20:21.366Z,11.30
2018-01-26T00:22:48.311Z,6.03
2018-01-26T00:25:15.195Z,7.17
2018-01-26T00:27:42.075Z,6.20
2018-01-26T00:30:09.054Z,5.30
2018-01-26T00:32:35.930Z,4.77
2018-01-26T00:35:02.920Z,3.60
2018-01-26T00:37:30.545Z,4.73
2018-01-26T00:39:57.418Z,5.30
2018-01-26T00:42:24.343Z,4.40
2018-01-26T00:44:51.220Z,3.63
2018-01-26T00:47:18.943Z,3.30
2018-01-26T00:49:45.894Z,4.80
2018-01-26T00:52:12.835Z,2.80
2018-01-26T00:54:39.771Z,2.97
2018-01-26T00:57:06.666Z,2.60
2018-01-26T00:59:34.299Z,1.63
2018-01-26T01:02:02.299Z,2.40
2018-01-26T01:04:30.589Z,2.17
2018-01-26T01:06:57.815Z,1.23
2018-01-26T01:09:25.834Z,2.30
2018-01-26T01:11:53.552Z,1.60
2018-01-26T01:14:21.772Z,2.13
2018-01-26T01:16:49.976Z,1.70
2018-01-26T01:19:16.902Z,1.30
2018-01-26T01:21:45.113Z,2.27
2018-01-26T01:24:12.019Z,2.10
2018-01-26T01:26:40.232Z,3.00
2018-01-26T01:29:08.834Z,2.20
2018-01-26T01:31:37.695Z,2.27
2018-01-26T01:34:04.578Z,2.57
2018-01-26T01:36:31.566Z,2.83
2018-01-26T01:39:00.815Z,2.30
2018-01-26T01:41:27.703Z,2.40
2018-01-26T01:43:54.628Z,3.93
2018-01-26T01:46:21.503Z,2.90
2018-01-26T01:49:00.450Z,2.80
2018-01-26T01:51:27.394Z,4.27
2018-01-26T01:53:54.266Z,2.70
2018-01-26T01:56:21.286Z,2.50
2018-01-26T01:58:48.164Z,2.77
2018-01-26T02:01:15.040Z,2.40
2018-01-26T02:03:42.631Z,2.77
2018-01-26T02:06:09.558Z,3.03
2018-01-26T02:08:36.479Z,2.73
2018-01-26T02:11:03.346Z,2.50
2018-01-26T02:13:30.273Z,2.90
2018-01-26T02:15:57.202Z,2.67
2018-01-26T02:18:24.105Z,3.20
2018-01-26T02:20:51.093Z,3.53
2018-01-26T02:23:18.040Z,2.83
2018-01-26T02:25:44.987Z,3.30
2018-01-26T02:28:11.854Z,3.30
2018-01-26T02:30:39.546Z,4.80
2018-01-26T02:33:06.423Z,5.47
2018-01-26T02:35:33.302Z,6.23
2018-01-26T02:38:00.984Z,4.30
2018-01-26T02:40:27.854Z,4.47
2018-01-26T02:42:54.733Z,4.03
2018-01-26T02:45:21.728Z,4.30
2018-01-26T02:47:48.687Z,4.27
2018-01-26T02:50:15.639Z,3.53
2018-01-26T02:52:42.506Z,3.73
2018-01-26T02:55:09.460Z,3.60
2018-01-26T02:57:36.351Z,4.67
2018-01-26T03:00:03.377Z,4.57
2018-01-26T03:02:31.497Z,4.93
2018-01-26T03:04:58.619Z,5.13
2018-01-26T03:07:25.484Z,4.87
2018-01-26T03:09:53.646Z,4.77
2018-01-26T03:12:20.576Z,5.70
2018-01-26T03:14:48.815Z,6.33
2018-01-26T03:17:15.742Z,6.40
2018-01-26T03:19:43.750Z,6.60
2018-01-26T03:22:11.508Z,7.37
2018-01-26T03:24:39.800Z,7.50
2018-01-26T03:27:07.465Z,6.60
2018-01-26T03:29:35.142Z,6.23
2018-01-26T03:32:02.007Z,8.10
2018-01-26T03:34:30.783Z,8.97
2018-01-26T03:36:57.645Z,9.57
2018-01-26T03:39:24.515Z,8.33
2018-01-26T03:41:51.456Z,9.60
2018-01-26T03:44:18.334Z,12.70
2018-01-26T03:46:45.209Z,6.97
2018-01-26T03:49:12.134Z,9.50
2018-01-26T03:51:39.798Z,9.60
2018-01-26T03:54:07.490Z,11.80
2018-01-26T03:56:34.351Z,11.10
2018-01-26T03:59:01.287Z,12.70
2018-01-26T04:01:28.216Z,13.23
2018-01-26T04:03:55.127Z,11.33
2018-01-26T04:06:21.991Z,10.30
2018-01-26T04:08:49.685Z,11.87
2018-01-26T04:11:16.573Z,14.00
2018-01-26T04:13:43.422Z,12.70
2018-01-26T04:16:10.346Z,16.57
2018-01-26T04:18:37.366Z,12.73
2018-01-26T04:21:04.261Z,11.70
2018-01-26T04:23:31.200Z,14.47
2018-01-26T04:25:58.059Z,14.10
2018-01-26T04:28:25.748Z,15.53
2018-01-26T04:30:52.734Z,16.30
2018-01-26T04:33:19.610Z,13.50
2018-01-26T04:35:46.555Z,16.10
2018-01-26T04:38:13.432Z,16.63
2018-01-26T04:40:40.305Z,14.00
2018-01-26T04:43:07.255Z,14.43
2018-01-26T04:45:34.199Z,20.40
2018-01-26T04:48:01.055Z,14.77
2018-01-26T04:50:27.931Z,19.30
2018-01-26T04:52:55.614Z,15.30
2018-01-26T04:55:23.218Z,16.53
2018-01-26T04:57:50.198Z,18.43
2018-01-26T05:00:17.090Z,13.70
2018-01-26T05:02:43.950Z,15.20
2018-01-26T05:05:10.890Z,17.23
2018-01-26T05:07:38.083Z,16.50
2018-01-26T05:10:06.466Z,16.93
2018-01-26T05:12:33.384Z,17.63
2018-01-26T05:15:01.619Z,17.10
2018-01-26T05:17:28.471Z,18.37
2018-01-26T05:19:57.866Z,16.37
2018-01-26T05:22:25.219Z,14.80
2018-01-26T05:24:55.413Z,15.97
2018-01-26T05:27:32.691Z,14.87
2018-01-26T05:30:00.635Z,14.30
2018-01-26T05:32:42.323Z,13.80
2018-01-26T05:35:10.950Z,12.70
2018-01-26T05:37:45.183Z,12.80
2018-01-26T05:40:13.720Z,14.87
2018-01-26T05:42:44.108Z,12.43
2018-01-26T05:45:19.611Z,11.60
2018-01-26T05:47:47.083Z,13.37
2018-01-26T05:50:14.152Z,12.10
2018-01-26T05:52:42.886Z,13.20
2018-01-26T05:55:09.783Z,15.53
2018-01-26T05:57:37.471Z,11.57
2018-01-26T06:00:04.455Z,12.00
2018-01-26T06:02:31.387Z,13.90
2018-01-26T06:04:58.258Z,12.30
2018-01-26T06:07:28.874Z,12.33
2018-01-26T06:10:05.669Z,10.67
2018-01-26T06:12:35.445Z,10.80
2018-01-26T06:15:02.332Z,13.77
2018-01-26T06:17:29.371Z,12.77
2018-01-26T06:19:56.395Z,12.03
2018-01-26T06:22:25.728Z,12.27
2018-01-26T06:24:52.829Z,16.07
2018-01-26T06:27:19.775Z,11.23
2018-01-26T06:29:46.722Z,13.80
2018-01-26T06:32:16.189Z,12.23
2018-01-26T06:34:43.176Z,17.17
2018-01-26T06:37:10.120Z,14.10
2018-01-26T06:39:36.995Z,12.67
2018-01-26T06:42:03.966Z,11.20
2018-01-26T06:44:30.895Z,14.70
2018-01-26T06:46:58.337Z,12.67
2018-01-26T06:49:25.290Z,12.30
2018-01-26T06:51:52.158Z,12.70
2018-01-26T06:54:19.102Z,12.77
2018-01-26T06:56:46.065Z,11.73
2018-01-26T06:59:13.678Z,15.83
2018-01-26T07:01:40.607Z,12.53
2018-01-26T07:04:07.470Z,18.47
2018-01-26T07:06:34.351Z,14.30
2018-01-26T07:09:01.294Z,12.97
2018-01-26T07:11:28.174Z,13.13
2018-01-26T07:13:55.196Z,14.70
2018-01-26T07:16:22.095Z,12.50
2018-01-26T07:18:49.074Z,12.97
2018-01-26T07:21:16.103Z,14.00
2018-01-26T07:23:43.047Z,15.37
2018-01-26T07:26:09.917Z,13.70
2018-01-26T07:28:36.847Z,14.43
2018-01-26T07:31:03.784Z,13.00
2018-01-26T07:33:30.656Z,11.53
2018-01-26T07:35:57.603Z,13.63
2018-01-26T07:38:25.247Z,11.03
2018-01-26T07:40:53.673Z,12.93
2018-01-26T07:43:20.534Z,13.30
2018-01-26T07:45:48.690Z,13.63
2018-01-26T07:48:16.355Z,14.47
2018-01-26T07:50:44.966Z,11.67
2018-01-26T07:53:12.439Z,16.17
2018-01-26T07:55:39.383Z,12.20
2018-01-26T07:58:06.260Z,14.30
2018-01-26T08:00:33.510Z,11.77
2018-01-26T08:03:00.430Z,14.17
2018-01-26T08:05:27.311Z,12.20
2018-01-26T08:07:54.279Z,13.40
2018-01-26T08:10:25.131Z,12.33
2018-01-26T08:13:06.023Z,14.97
2018-01-26T08:15:33.756Z,14.00
2018-01-26T08:18:00.687Z,12.83
2018-01-26T08:20:28.490Z,12.57
2018-01-26T08:22:55.414Z,15.97
2018-01-26T08:25:23.090Z,12.37
2018-01-26T08:27:49.955Z,13.63
2018-01-26T08:30:16.904Z,11.27
2018-01-26T08:32:43.775Z,12.33
2018-01-26T08:35:10.652Z,10.77
2018-01-26T08:37:37.616Z,13.13
2018-01-26T08:40:04.484Z,12.97
2018-01-26T08:42:31.443Z,13.73
2018-01-26T08:44:58.442Z,10.93
2018-01-26T08:47:26.051Z,10.17
2018-01-26T08:49:52.927Z,12.50
2018-01-26T08:52:19.861Z,10.73
2018-01-26T08:54:46.734Z,11.00
2018-01-26T08:57:14.416Z,13.23
2018-01-26T08:59:41.375Z,11.90
2018-01-26T09:02:08.316Z,9.40
2018-01-26T09:04:35.186Z,9.27
2018-01-26T09:07:02.188Z,7.97
2018-01-26T09:09:29.787Z,8.23
2018-01-26T09:11:56.770Z,7.53
2018-01-26T09:14:23.648Z,10.80
2018-01-26T09:16:50.756Z,7.40
2018-01-26T09:19:17.634Z,7.40
2018-01-26T09:21:45.336Z,8.20
2018-01-26T09:24:12.271Z,8.30
2018-01-26T09:26:39.134Z,7.13
2018-01-26T09:29:06.074Z,6.93
2018-01-26T09:31:32.950Z,11.37
2018-01-26T09:33:59.882Z,7.77
2018-01-26T09:36:26.826Z,8.20
2018-01-26T09:38:53.699Z,8.70
2018-01-26T09:41:20.883Z,7.60
2018-01-26T09:43:47.828Z,10.37
2018-01-26T09:46:15.966Z,6.97
2018-01-26T09:48:43.316Z,8.93
2018-01-26T09:51:11.527Z,7.30
2018-01-26T09:53:39.676Z,6.93
2018-01-26T09:56:07.689Z,6.87
2018-01-26T10:01:25.829Z,6.43
2018-01-26T10:03:54.895Z,6.03
2018-01-26T10:06:25.294Z,5.60
2018-01-26T10:09:05.659Z,5.77
2018-01-26T10:11:35.188Z,5.83
2018-01-26T10:14:03.126Z,9.23
2018-01-26T10:16:33.754Z,7.27
2018-01-26T10:19:00.686Z,6.43
2018-01-26T10:21:27.566Z,5.50
2018-01-26T10:23:54.470Z,6.83
2018-01-26T10:26:21.336Z,6.50
2018-01-26T10:28:48.242Z,6.20
2018-01-26T10:31:15.174Z,6.40
2018-01-26T10:33:42.018Z,6.03
2018-01-26T10:36:08.874Z,7.33
2018-01-26T10:38:36.534Z,6.13
2018-01-26T10:41:03.379Z,5.53
2018-01-26T10:43:30.304Z,5.23
2018-01-26T10:45:57.162Z,5.30
2018-01-26T10:48:24.247Z,6.70
2018-01-26T10:50:51.096Z,6.43
2018-01-26T10:53:17.956Z,6.60
2018-01-26T10:55:44.890Z,7.27
2018-01-26T10:58:11.754Z,6.57
2018-01-26T11:00:38.745Z,6.77
2018-01-26T11:03:05.676Z,7.23
2018-01-26T11:05:41.060Z,7.60
2018-01-26T11:08:08.804Z,12.60
2018-01-26T11:10:49.079Z,9.77
2018-01-26T11:13:30.309Z,8.30
2018-01-26T11:16:05.470Z,7.93
2018-01-26T11:18:33.636Z,9.57
2018-01-26T11:21:04.034Z,10.30
2018-01-26T11:23:33.463Z,8.33
2018-01-26T11:26:00.659Z,7.40
2018-01-26T11:28:30.310Z,7.30
2018-01-26T11:30:57.706Z,8.90
2018-01-26T11:33:38.436Z,6.67
2018-01-26T11:36:09.186Z,9.23
2018-01-26T11:38:49.632Z,7.20
2018-01-26T11:41:30.744Z,8.47
2018-01-26T11:44:11.457Z,9.37
2018-01-26T11:46:45.790Z,8.23
2018-01-26T11:49:13.016Z,7.37
2018-01-26T11:51:40.226Z,8.20
2018-01-26T11:54:07.426Z,7.77
2018-01-26T11:56:34.514Z,7.23
2018-01-26T11:59:01.521Z,8.00
2018-01-26T12:01:28.418Z,7.40
2018-01-26T12:03:55.376Z,8.03
2018-01-26T12:06:22.210Z,6.50
2018-01-26T12:08:49.348Z,6.47
2018-01-26T12:11:16.587Z,7.87
2018-01-26T12:13:44.075Z,6.83
2018-01-26T12:16:11.199Z,5.63
2018-01-26T12:18:38.571Z,5.37
2018-01-26T12:21:05.830Z,6.43
2018-01-26T12:23:33.317Z,5.37
2018-01-26T12:26:01.395Z,6.30
2018-01-26T12:28:29.400Z,6.13
2018-01-26T12:30:56.674Z,10.30
2018-01-26T12:33:23.970Z,9.00
2018-01-26T12:35:52.050Z,8.20
2018-01-26T12:38:19.144Z,11.30
2018-01-26T12:40:46.233Z,8.60
2018-01-26T12:43:13.098Z,11.37
2018-01-26T12:45:57.122Z,13.77
2018-01-26T12:48:38.756Z,15.13
2018-01-26T12:51:20.903Z,13.67
2018-01-26T12:54:04.354Z,14.10
2018-01-26T12:59:33.904Z,16.17
2018-01-26T13:02:19.468Z,14.57
2018-01-26T13:07:49.738Z,10.47
2018-01-26T13:10:33.871Z,12.27
2018-01-26T13:13:17.790Z,12.07
2018-01-26T13:16:00.818Z,7.73
2018-01-26T13:21:24.553Z,15.00
2018-01-26T13:24:02.691Z,7.40
2018-01-26T13:26:45.869Z,9.10
2018-01-26T13:29:30.762Z,11.77
2018-01-26T13:32:16.124Z,8.80
2018-01-26T13:34:56.834Z,7.90
2018-01-26T13:37:40.969Z,8.77
2018-01-26T13:40:24.124Z,12.23
2018-01-26T13:43:00.751Z,12.93
2018-01-26T13:45:41.850Z,10.63
2018-01-26T13:48:22.758Z,8.83
2018-01-26T13:50:59.116Z,10.97
2018-01-26T13:59:06.471Z,9.30
2018-01-26T14:01:43.128Z,11.53
2018-01-26T14:04:24.322Z,9.00
2018-01-26T14:07:08.162Z,11.67
2018-01-26T14:09:47.172Z,14.77
2018-01-26T14:12:26.659Z,16.67
2018-01-26T14:15:06.034Z,11.50
2018-01-26T14:17:45.080Z,9.73
2018-01-26T14:20:24.341Z,16.53
2018-01-26T14:23:05.145Z,10.70
2018-01-26T14:25:45.443Z,12.60
2018-01-26T14:28:27.746Z,10.07
2018-01-26T14:31:08.473Z,16.03
2018-01-26T14:33:49.863Z,12.53
2018-01-26T14:36:30.566Z,12.73
2018-01-26T14:39:11.423Z,13.87
2018-01-26T14:41:51.053Z,12.97
2018-01-26T14:44:18.861Z,13.60
2018-01-26T14:46:45.843Z,13.53
2018-01-26T14:49:12.754Z,14.70
2018-01-26T14:51:39.703Z,10.53
2018-01-26T14:54:06.560Z,15.63
2018-01-26T14:56:33.490Z,14.20
2018-01-26T14:59:00.404Z,11.80
2018-01-26T15:01:27.328Z,12.60
2018-01-26T15:03:54.191Z,12.20
2018-01-26T15:06:21.140Z,12.70
2018-01-26T15:08:48.086Z,18.23
2018-01-26T15:11:14.967Z,12.70
2018-01-26T15:13:42.082Z,13.10
2018-01-26T15:16:12.978Z,21.87
2018-01-26T15:18:54.700Z,15.03
2018-01-26T15:21:35.367Z,12.83
2018-01-26T15:27:05.334Z,18.97
2018-01-26T15:29:47.574Z,13.00
2018-01-26T15:37:59.357Z,17.37
2018-01-26T15:40:43.194Z,17.77
2018-01-26T15:43:24.307Z,16.20
2018-01-26T15:46:05.787Z,15.50
2018-01-26T15:48:46.310Z,14.23
2018-01-26T15:51:14.159Z,16.50
2018-01-26T15:53:42.283Z,16.70
2018-01-26T15:56:09.646Z,19.40
2018-01-26T15:58:36.731Z,14.53
2018-01-26T16:01:15.800Z,12.40
2018-01-26T16:03:47.825Z,12.73
2018-01-26T16:06:15.878Z,18.73
2018-01-26T16:08:46.404Z,12.23
2018-01-26T16:11:22.469Z,13.33
2018-01-26T16:14:00.038Z,29.37
2018-01-26T16:16:39.422Z,13.13
2018-01-26T16:19:19.851Z,13.87
2018-01-26T16:22:00.274Z,14.37
2018-01-26T16:27:23.053Z,18.00
2018-01-26T16:29:53.305Z,18.30
2018-01-26T16:32:27.432Z,15.53
2018-01-26T16:34:58.700Z,12.90
2018-01-26T16:37:28.028Z,14.97
2018-01-26T16:40:06.609Z,14.80
2018-01-26T16:42:46.594Z,14.90
2018-01-26T16:45:23.533Z,14.80
2018-01-26T16:47:58.764Z,15.13
2018-01-26T16:50:36.954Z,15.10
2018-01-26T16:53:04.928Z,18.13
2018-01-26T16:55:34.642Z,16.87
2018-01-26T16:58:07.541Z,15.30
2018-01-26T17:00:39.081Z,13.97
2018-01-26T17:03:15.815Z,14.60
2018-01-26T17:05:50.772Z,14.13
2018-01-26T17:08:20.904Z,16.27
2018-01-26T17:10:49.730Z,16.03
2018-01-26T17:13:19.336Z,17.23
2018-01-26T17:15:54.476Z,17.50
2018-01-26T17:18:28.725Z,17.00
2018-01-26T17:20:59.149Z,14.00
2018-01-26T17:23:33.306Z,18.23
2018-01-26T17:26:07.483Z,15.40
2018-01-26T17:28:37.844Z,17.40
2018-01-26T17:31:09.226Z,17.10
2018-01-26T17:33:43.739Z,18.93
2018-01-26T17:36:17.884Z,17.03
2018-01-26T17:38:54.499Z,13.03
2018-01-26T17:41:33.801Z,13.37
2018-01-26T17:44:09.384Z,13.30
2018-01-26T17:46:37.910Z,13.73
2018-01-26T17:49:08.746Z,17.50
2018-01-26T17:51:44.062Z,19.13
2018-01-26T17:54:13.669Z,21.23
2018-01-26T17:56:51.882Z,13.90
2018-01-26T17:59:21.175Z,14.93
2018-01-26T18:01:51.776Z,15.60
2018-01-26T18:04:25.569Z,16.77
2018-01-26T18:06:55.308Z,18.30
2018-01-26T18:09:30.414Z,15.93
2018-01-26T18:12:02.062Z,18.77
2018-01-26T18:14:30.155Z,15.77
2018-01-26T18:16:58.317Z,15.60
2018-01-26T18:19:32.700Z,12.30
2018-01-26T18:22:03.348Z,13.60
2018-01-26T18:24:33.635Z,10.27
2018-01-26T18:27:05.513Z,9.83
2018-01-26T18:29:36.902Z,11.77
2018-01-26T18:32:07.575Z,12.30
2018-01-26T18:34:38.021Z,17.60
2018-01-26T18:37:08.842Z,14.70
2018-01-26T18:39:38.910Z,21.27
2018-01-26T18:42:09.553Z,16.57
2018-01-26T18:44:43.129Z,18.60
2018-01-26T18:47:14.788Z,19.90
2018-01-26T18:49:50.190Z,19.87
2018-01-26T18:52:24.094Z,26.43
2018-01-26T18:54:55.237Z,20.80
2018-01-26T18:57:22.662Z,16.23
2018-01-26T18:59:51.613Z,13.00
2018-01-26T19:02:19.670Z,37.00
2018-01-26T19:04:46.927Z,28.23
2018-01-26T19:07:14.110Z,24.47
2018-01-26T19:09:44.421Z,24.23
2018-01-26T19:12:11.433Z,22.50
2018-01-26T19:14:40.828Z,18.07
2018-01-26T19:17:07.807Z,18.50
2018-01-26T19:19:34.744Z,16.17
2018-01-26T19:22:01.635Z,14.30
2018-01-26T19:24:28.615Z,11.93
2018-01-26T19:26:56.482Z,12.10
2018-01-26T19:29:23.578Z,14.30
2018-01-26T19:31:52.985Z,13.17
2018-01-26T19:34:20.115Z,13.50
2018-01-26T19:36:49.936Z,10.70
2018-01-26T19:39:17.006Z,18.20
2018-01-26T19:41:44.743Z,17.17
2018-01-26T19:44:11.919Z,15.53
2018-01-26T19:46:42.145Z,15.67
2018-01-26T19:49:09.085Z,17.20
2018-01-26T19:51:38.454Z,19.70
2018-01-26T19:54:06.543Z,15.40
2018-01-26T19:56:33.540Z,14.60
2018-01-26T19:59:00.536Z,13.93
2018-01-26T20:01:27.602Z,18.30
2018-01-26T20:04:10.428Z,14.33
2018-01-26T20:06:55.498Z,17.63
2018-01-26T20:09:25.379Z,16.70
2018-01-26T20:11:58.399Z,20.60
2018-01-26T20:14:25.277Z,12.87
2018-01-26T20:16:52.256Z,10.30
2018-01-26T20:19:19.261Z,11.83
2018-01-26T20:21:46.311Z,10.17
2018-01-26T20:24:13.354Z,11.30
2018-01-26T20:26:40.392Z,10.30
2018-01-26T20:29:07.514Z,9.50
2018-01-26T20:31:34.483Z,12.97
2018-01-26T20:34:04.684Z,12.90
2018-01-26T20:36:31.815Z,12.80
2018-01-26T20:38:58.993Z,10.17
2018-01-26T20:41:26.022Z,7.00
2018-01-26T20:43:56.082Z,8.67
2018-01-26T20:46:23.502Z,7.13
2018-01-26T20:48:53.603Z,7.00
2018-01-26T20:51:23.536Z,9.20
2018-01-26T20:53:51.669Z,7.37
2018-01-26T20:56:18.830Z,8.37
2018-01-26T20:58:46.571Z,7.00
2018-01-26T21:01:13.487Z,7.53
2018-01-26T21:03:40.551Z,8.53
2018-01-26T21:06:07.608Z,7.30
2018-01-26T21:08:34.587Z,7.70
2018-01-26T21:11:02.181Z,7.97
2018-01-26T21:13:29.122Z,8.60
2018-01-26T21:15:56.110Z,9.90
2018-01-26T21:18:23.135Z,11.07
2018-01-26T21:20:50.127Z,9.20
2018-01-26T21:23:17.178Z,7.93
2018-01-26T21:25:44.143Z,11.67
2018-01-26T21:28:12.021Z,8.53
2018-01-26T21:30:39.102Z,10.17
2018-01-26T21:33:06.010Z,9.63
2018-01-26T21:35:33.067Z,11.60
2018-01-26T21:38:00.052Z,15.07
2018-01-26T21:40:27.023Z,16.57
2018-01-26T21:42:53.979Z,17.63
2018-01-26T21:45:20.946Z,17.13
2018-01-26T21:47:48.006Z,20.13
2018-01-26T21:50:14.950Z,18.57
2018-01-26T21:52:41.840Z,19.80
2018-01-26T21:55:08.932Z,17.63
2018-01-26T21:57:36.684Z,17.43
2018-01-26T22:00:03.878Z,16.03
2018-01-26T22:02:32.094Z,10.93
2018-01-26T22:05:07.029Z,10.23
2018-01-26T22:07:41.992Z,10.57
2018-01-26T22:10:11.743Z,9.27
2018-01-26T22:12:40.878Z,8.37
2018-01-26T22:15:09.914Z,8.80
2018-01-26T22:17:46.647Z,10.50
2018-01-26T22:20:15.645Z,8.40
2018-01-26T22:22:44.131Z,7.53
2018-01-26T22:25:12.838Z,7.90
2018-01-26T22:27:41.438Z,8.40
2018-01-26T22:30:09.879Z,10.17
2018-01-26T22:32:38.701Z,7.63
2018-01-26T22:35:08.073Z,8.30
2018-01-26T22:37:38.318Z,7.83
2018-01-26T22:40:08.215Z,8.00
2018-01-26T22:42:36.606Z,10.10
2018-01-26T22:45:05.448Z,12.37
2018-01-26T22:47:34.411Z,11.50
2018-01-26T22:50:03.510Z,11.37
2018-01-26T22:52:43.733Z,9.90
2018-01-26T22:55:20.814Z,9.23
2018-01-26T22:57:58.144Z,8.67
2018-01-26T23:00:37.312Z,9.13
2018-01-26T23:03:08.956Z,9.97
2018-01-26T23:05:47.089Z,9.77
2018-01-26T23:08:26.848Z,8.23
2018-01-26T23:11:04.375Z,11.17
2018-01-26T23:13:35.271Z,9.70
2018-01-26T23:16:15.098Z,12.00
2018-01-26T23:18:45.902Z,11.27
2018-01-26T23:21:15.168Z,13.37
2018-01-26T23:23:44.992Z,12.67
2018-01-26T23:26:15.029Z,11.10
2018-01-26T23:28:46.007Z,13.20
2018-01-26T23:31:16.132Z,11.33
2018-01-26T23:33:45.167Z,15.20
2018-01-26T23:36:13.510Z,14.20
2018-01-26T23:38:42.053Z,12.60
2018-01-26T23:41:10.171Z,16.17
2018-01-26T23:43:39.132Z,14.10
2018-01-26T23:46:07.356Z,11.70
2018-01-26T23:48:35.227Z,12.63
2018-01-26T23:51:03.227Z,16.80
2018-01-26T23:53:31.935Z,16.83
2018-01-26T23:56:00.105Z,17.50
2018-01-26T23:58:28.323Z,19.70
